Terminal Aerodrome Forecast
Issued by NWS

Home | Current Version | Previous Version | Text Only | Print | Product List | Glossary On
Versions: 1 2 3 4 5 6 7 8 9 10 11 12 13
000
FTUS45 KVEF 202300
TAFHND
TAF
KHND 202320Z 2100/2124 17007KT P6SM VCTS FEW080CB BKN100
     FM210400 20007KT P6SM -SHRA VCTS SCT050CB BKN080
     FM210800 19007KT P6SM VCSH BKN090
     FM211400 VRB06KT P6SM SCT090=

USA.gov is the U.S. government's official web portal to all federal, state and local government web resources and services.